createdAt,value
2018-09-08T00:00:47.079Z,0
2018-09-08T00:01:57.199Z,0
2018-09-08T00:03:06.490Z,0
2018-09-08T00:04:16.596Z,0
2018-09-08T00:05:26.168Z,0
2018-09-08T00:06:36.338Z,0
2018-09-08T00:07:46.174Z,0
2018-09-08T00:08:55.746Z,0
2018-09-08T00:10:05.312Z,0
2018-09-08T00:11:15.155Z,0
2018-09-08T00:12:24.993Z,0
2018-09-08T00:13:34.837Z,0
2018-09-08T00:14:44.414Z,0
2018-09-08T00:15:54.521Z,0
2018-09-08T00:17:04.363Z,0
2018-09-08T00:18:14.204Z,0
2018-09-08T00:19:23.775Z,0
2018-09-08T00:20:32.810Z,0
2018-09-08T00:21:42.639Z,0
2018-09-08T00:22:52.440Z,0
2018-09-08T00:24:02.331Z,0
2018-09-08T00:25:11.897Z,0
2018-09-08T00:26:21.750Z,0
2018-09-08T00:27:31.588Z,0
2018-09-08T00:28:41.691Z,0
2018-09-08T00:29:51.581Z,0
2018-09-08T00:31:01.158Z,0
2018-09-08T00:32:10.992Z,0
2018-09-08T00:33:20.878Z,0
2018-09-08T00:34:29.908Z,0
2018-09-08T00:35:39.754Z,0
2018-09-08T00:36:49.593Z,0
2018-09-08T00:37:59.161Z,0
2018-09-08T00:39:08.730Z,0
2018-09-08T00:40:17.782Z,0
2018-09-08T00:41:27.672Z,0
2018-09-08T00:42:37.260Z,0
2018-09-08T00:43:46.831Z,0
2018-09-08T00:44:56.406Z,0
2018-09-08T00:46:06.154Z,0
2018-09-08T00:47:15.992Z,0
2018-09-08T00:48:25.556Z,0
2018-09-08T00:49:34.887Z,0
2018-09-08T00:50:44.222Z,0
2018-09-08T00:51:54.070Z,0
2018-09-08T00:53:03.921Z,0
2018-09-08T00:54:13.497Z,0
2018-09-08T00:55:23.603Z,0
2018-09-08T00:56:33.169Z,0
2018-09-08T00:57:43.008Z,0
2018-09-08T00:58:52.301Z,0
2018-09-08T01:00:01.600Z,0
2018-09-08T01:01:11.165Z,0
2018-09-08T01:02:20.732Z,0
2018-09-08T01:03:30.301Z,0
2018-09-08T01:04:40.189Z,0
2018-09-08T01:05:49.496Z,0
2018-09-08T01:06:59.334Z,0
2018-09-08T01:08:08.916Z,0
2018-09-08T01:09:18.504Z,0
2018-09-08T01:10:28.622Z,0
2018-09-08T01:11:38.736Z,0
2018-09-08T01:12:48.572Z,0
2018-09-08T01:13:58.407Z,0
2018-09-08T01:15:07.980Z,0
2018-09-08T01:16:17.549Z,0
2018-09-08T01:17:27.115Z,0
2018-09-08T01:18:36.686Z,0
2018-09-08T01:19:46.846Z,0
2018-09-08T01:20:56.949Z,0
2018-09-08T01:22:06.522Z,0
2018-09-08T01:23:16.396Z,0
2018-09-08T01:24:26.234Z,0
2018-09-08T01:25:35.802Z,0
2018-09-08T01:26:45.916Z,0
2018-09-08T01:27:55.753Z,0
2018-09-08T01:29:05.327Z,0
2018-09-08T01:30:15.438Z,0
2018-09-08T01:31:25.268Z,0
2018-09-08T01:32:34.577Z,0
2018-09-08T01:33:44.412Z,0
2018-09-08T01:34:54.518Z,0
2018-09-08T01:36:04.089Z,0
2018-09-08T01:37:13.922Z,0
2018-09-08T01:38:23.758Z,0
2018-09-08T01:39:33.600Z,0
2018-09-08T01:40:43.733Z,0
2018-09-08T01:41:53.300Z,0
2018-09-08T01:43:02.644Z,0
2018-09-08T01:44:12.691Z,0
2018-09-08T01:45:22.037Z,0
2018-09-08T01:46:31.563Z,0
2018-09-08T01:47:41.178Z,0
2018-09-08T01:48:50.484Z,0
2018-09-08T01:50:00.378Z,0
2018-09-08T01:51:09.738Z,0
2018-09-08T01:52:19.847Z,0
2018-09-08T01:53:29.689Z,0
2018-09-08T01:54:40.028Z,0
2018-09-08T01:55:49.595Z,0
2018-09-08T01:56:59.427Z,0
2018-09-08T01:58:08.997Z,0
2018-09-08T01:59:18.835Z,0
2018-09-08T02:00:28.674Z,0
2018-09-08T02:01:38.245Z,0
2018-09-08T02:02:47.812Z,0
2018-09-08T02:03:57.422Z,0
2018-09-08T02:05:07.020Z,0
2018-09-08T02:06:16.861Z,0
2018-09-08T02:07:26.158Z,0
2018-09-08T02:08:35.457Z,0
2018-09-08T02:09:45.562Z,0
2018-09-08T02:10:55.164Z,0
2018-09-08T02:12:05.003Z,0
2018-09-08T02:13:14.566Z,0
2018-09-08T02:14:24.132Z,0
2018-09-08T02:15:33.968Z,0
2018-09-08T02:16:43.818Z,0
2018-09-08T02:17:53.120Z,0
2018-09-08T02:19:02.694Z,0
2018-09-08T02:20:12.584Z,0
2018-09-08T02:21:22.187Z,0
2018-09-08T02:22:32.306Z,0
2018-09-08T02:23:41.333Z,0
2018-09-08T02:24:51.449Z,0
2018-09-08T02:26:01.296Z,0
2018-09-08T02:27:11.408Z,0
2018-09-08T02:28:20.975Z,0
2018-09-08T02:29:30.821Z,0
2018-09-08T02:30:40.393Z,0
2018-09-08T02:31:49.972Z,0
2018-09-08T02:32:59.559Z,0
2018-09-08T02:34:09.128Z,0
2018-09-08T02:35:18.963Z,0
2018-09-08T02:36:28.536Z,0
2018-09-08T02:37:38.373Z,0
2018-09-08T02:38:48.486Z,0
2018-09-08T02:39:57.797Z,0
2018-09-08T02:41:07.392Z,0
2018-09-08T02:42:17.381Z,0
2018-09-08T02:43:26.727Z,0
2018-09-08T02:44:36.598Z,0
2018-09-08T02:45:46.424Z,0
2018-09-08T02:46:55.185Z,0
2018-09-08T02:48:05.025Z,0
2018-09-08T02:49:14.364Z,0
2018-09-08T02:50:24.553Z,0
2018-09-08T02:51:34.399Z,0
2018-09-08T02:52:43.704Z,0
2018-09-08T02:53:53.281Z,0
2018-09-08T02:55:03.119Z,0
2018-09-08T02:56:12.956Z,0
2018-09-08T02:57:22.528Z,0
2018-09-08T02:58:32.368Z,0
2018-09-08T02:59:42.512Z,0
2018-09-08T03:00:52.093Z,0
2018-09-08T03:02:01.933Z,0
2018-09-08T03:03:11.509Z,0
2018-09-08T03:04:21.617Z,0
2018-09-08T03:05:31.486Z,0
2018-09-08T03:06:41.109Z,0
2018-09-08T03:07:50.416Z,0
2018-09-08T03:08:59.992Z,0
2018-09-08T03:10:09.564Z,0
2018-09-08T03:11:19.146Z,0
2018-09-08T03:12:28.777Z,0
2018-09-08T03:13:38.619Z,0
2018-09-08T03:14:47.378Z,0
2018-09-08T03:15:56.681Z,0
2018-09-08T03:17:06.521Z,0
2018-09-08T03:18:15.815Z,0
2018-09-08T03:19:25.658Z,0
2018-09-08T03:20:35.495Z,0
2018-09-08T03:21:44.793Z,0
2018-09-08T03:22:54.642Z,0
2018-09-08T03:24:04.230Z,0
2018-09-08T03:25:14.065Z,0
2018-09-08T03:26:23.957Z,0
2018-09-08T03:27:33.790Z,0
2018-09-08T03:28:43.369Z,0
2018-09-08T03:29:53.564Z,0
2018-09-08T03:31:03.147Z,0
2018-09-08T03:32:13.264Z,0
2018-09-08T03:33:23.099Z,0
2018-09-08T03:34:32.405Z,0
2018-09-08T03:35:42.239Z,0
2018-09-08T03:36:52.352Z,0
2018-09-08T03:38:01.922Z,0
2018-09-08T03:39:12.033Z,0
2018-09-08T03:40:21.870Z,0
2018-09-08T03:41:31.438Z,0
2018-09-08T03:42:41.279Z,0
2018-09-08T03:43:51.113Z,0
2018-09-08T03:45:00.679Z,0
2018-09-08T03:46:09.977Z,0
2018-09-08T03:47:19.323Z,0
2018-09-08T03:48:28.888Z,0
2018-09-08T03:49:38.728Z,0
2018-09-08T03:50:48.850Z,0
2018-09-08T03:51:58.688Z,0
2018-09-08T03:53:08.826Z,0
2018-09-08T03:54:18.391Z,0
2018-09-08T03:55:28.492Z,0
2018-09-08T03:56:38.610Z,0
2018-09-08T03:57:48.177Z,0
2018-09-08T03:58:57.559Z,0
2018-09-08T04:00:07.816Z,0
2018-09-08T04:01:17.387Z,0
2018-09-08T04:02:27.223Z,0
2018-09-08T04:03:37.064Z,0
2018-09-08T04:04:46.910Z,0
2018-09-08T04:05:56.480Z,0
2018-09-08T04:07:06.327Z,0
2018-09-08T04:08:16.173Z,0
2018-09-08T04:09:25.749Z,0
2018-09-08T04:10:35.855Z,0
2018-09-08T04:11:45.966Z,0
2018-09-08T04:12:55.579Z,0
2018-09-08T04:14:05.207Z,4
2018-09-08T04:15:14.778Z,4
2018-09-08T04:16:24.401Z,0
2018-09-08T04:17:34.289Z,4
2018-09-08T04:18:43.864Z,4
2018-09-08T04:19:53.461Z,4
2018-09-08T04:21:03.310Z,8
2018-09-08T04:22:13.144Z,8
2018-09-08T04:23:23.258Z,8
2018-09-08T04:24:32.818Z,8
2018-09-08T04:25:42.650Z,12
2018-09-08T04:26:52.218Z,16
2018-09-08T04:28:02.060Z,16
2018-09-08T04:29:11.903Z,20
2018-09-08T04:30:21.762Z,24
2018-09-08T04:31:31.628Z,28
2018-09-08T04:32:41.762Z,32
2018-09-08T04:33:51.616Z,44
2018-09-08T04:35:01.216Z,48
2018-09-08T04:36:11.338Z,60
2018-09-08T04:37:21.443Z,68
2018-09-08T04:38:31.016Z,76
2018-09-08T04:39:41.125Z,88
2018-09-08T04:40:50.749Z,100
2018-09-08T04:42:00.957Z,116
2018-09-08T04:43:10.799Z,132
2018-09-08T04:44:20.361Z,148
2018-09-08T04:45:29.709Z,168
2018-09-08T04:46:39.561Z,180
2018-09-08T04:47:49.414Z,200
2018-09-08T04:48:58.726Z,216
2018-09-08T04:50:08.332Z,220
2018-09-08T04:51:18.211Z,240
2018-09-08T04:52:28.058Z,280
2018-09-08T04:53:37.361Z,304
2018-09-08T04:54:46.925Z,344
2018-09-08T04:55:56.505Z,356
2018-09-08T04:57:06.625Z,400
2018-09-08T04:58:16.192Z,436
2018-09-08T04:59:26.034Z,452
2018-09-08T05:00:35.062Z,476
2018-09-08T05:01:44.371Z,500
2018-09-08T05:02:54.268Z,524
2018-09-08T05:04:04.111Z,556
2018-09-08T05:05:13.411Z,580
2018-09-08T05:06:23.525Z,608
2018-09-08T05:07:32.826Z,632
2018-09-08T05:08:42.393Z,656
2018-09-08T05:09:52.499Z,680
2018-09-08T05:11:02.376Z,704
2018-09-08T05:12:12.214Z,732
2018-09-08T05:13:22.323Z,748
2018-09-08T05:14:31.621Z,760
2018-09-08T05:15:41.232Z,780
2018-09-08T05:16:51.345Z,780
2018-09-08T05:18:00.919Z,776
2018-09-08T05:19:10.226Z,772
2018-09-08T05:20:19.827Z,776
2018-09-08T05:21:29.404Z,792
2018-09-08T05:22:38.710Z,828
2018-09-08T05:23:48.559Z,876
2018-09-08T05:24:58.392Z,936
2018-09-08T05:26:07.696Z,1000
2018-09-08T05:27:17.264Z,1056
2018-09-08T05:28:27.146Z,1112
2018-09-08T05:29:37.276Z,1236
2018-09-08T05:30:47.115Z,1348
2018-09-08T05:31:57.226Z,1340
2018-09-08T05:33:07.071Z,1260
2018-09-08T05:34:16.657Z,1232
2018-09-08T05:35:26.498Z,1284
2018-09-08T05:36:36.343Z,1332
2018-09-08T05:37:45.372Z,1388
2018-09-08T05:38:54.936Z,1408
2018-09-08T05:40:04.775Z,1424
2018-09-08T05:41:14.375Z,1428
2018-09-08T05:42:23.944Z,1452
2018-09-08T05:43:33.024Z,1480
2018-09-08T05:44:43.131Z,1520
2018-09-08T05:45:52.163Z,1572
2018-09-08T05:47:02.277Z,1612
2018-09-08T05:48:11.846Z,1648
2018-09-08T05:49:20.604Z,1652
2018-09-08T05:50:30.736Z,1656
2018-09-08T05:51:40.312Z,1708
2018-09-08T05:52:50.189Z,1772
2018-09-08T05:54:00.022Z,1856
2018-09-08T05:55:09.916Z,1936
2018-09-08T05:56:20.024Z,2068
2018-09-08T05:57:29.874Z,2140
2018-09-08T05:58:40.123Z,2220
2018-09-08T05:59:49.689Z,2356
2018-09-08T06:00:59.534Z,2596
2018-09-08T06:02:09.711Z,2812
2018-09-08T06:03:19.554Z,2864
2018-09-08T06:04:29.129Z,3040
2018-09-08T06:05:38.702Z,2920
2018-09-08T06:06:48.549Z,2652
2018-09-08T06:07:58.116Z,2968
2018-09-08T06:09:07.689Z,3152
2018-09-08T06:10:17.827Z,2944
2018-09-08T06:11:27.853Z,2768
2018-09-08T06:12:37.179Z,2508
2018-09-08T06:13:47.016Z,2204
2018-09-08T06:14:57.124Z,1856
2018-09-08T06:16:07.232Z,1832
2018-09-08T06:17:16.554Z,1860
2018-09-08T06:18:26.432Z,1900
2018-09-08T06:19:36.689Z,1948
2018-09-08T06:20:46.634Z,1984
2018-09-08T06:21:56.744Z,2008
2018-09-08T06:23:06.592Z,2144
2018-09-08T06:24:16.485Z,2212
2018-09-08T06:25:26.219Z,2300
2018-09-08T06:26:35.827Z,2416
2018-09-08T06:27:45.667Z,2580
2018-09-08T06:28:55.518Z,2732
2018-09-08T06:30:05.355Z,2848
2018-09-08T06:31:14.935Z,3000
2018-09-08T06:32:25.049Z,3268
2018-09-08T06:33:35.603Z,3492
2018-09-08T06:34:45.439Z,3748
2018-09-08T06:35:54.741Z,3876
2018-09-08T06:37:04.322Z,3876
2018-09-08T06:38:13.632Z,3796
2018-09-08T06:39:23.228Z,3648
2018-09-08T06:40:32.797Z,3592
2018-09-08T06:41:42.638Z,3512
2018-09-08T06:42:52.214Z,3556
2018-09-08T06:44:02.088Z,3656
2018-09-08T06:45:12.502Z,3620
2018-09-08T06:46:22.324Z,3448
2018-09-08T06:47:31.891Z,3296
2018-09-08T06:48:42.004Z,3256
2018-09-08T06:49:51.572Z,3088
2018-09-08T06:51:01.687Z,2932
2018-09-08T06:52:11.028Z,2712
2018-09-08T06:53:20.956Z,2536
2018-09-08T06:54:31.069Z,2436
2018-09-08T06:55:40.366Z,2372
2018-09-08T06:56:49.950Z,2380
2018-09-08T06:57:59.746Z,2324
2018-09-08T06:59:09.814Z,2364
2018-09-08T07:00:19.652Z,2340
2018-09-08T07:01:29.768Z,2368
2018-09-08T07:02:39.607Z,2404
2018-09-08T07:03:49.186Z,2400
2018-09-08T07:04:59.027Z,2376
2018-09-08T07:06:08.611Z,2380
2018-09-08T07:07:17.916Z,2388
2018-09-08T07:08:27.765Z,2408
2018-09-08T07:09:37.610Z,2424
2018-09-08T07:10:47.179Z,2452
2018-09-08T07:11:57.018Z,2476
2018-09-08T07:13:06.863Z,2444
2018-09-08T07:14:16.975Z,2424
2018-09-08T07:15:26.996Z,2416
2018-09-08T07:16:37.151Z,2360
2018-09-08T07:17:46.730Z,2328
2018-09-08T07:18:56.575Z,2344
2018-09-08T07:20:06.414Z,2344
2018-09-08T07:21:15.989Z,2344
2018-09-08T07:22:25.560Z,2356
2018-09-08T07:23:35.129Z,2352
2018-09-08T07:24:45.039Z,2340
2018-09-08T07:25:54.934Z,2340
2018-09-08T07:27:04.775Z,2348
2018-09-08T07:28:14.886Z,2348
2018-09-08T07:29:24.463Z,2360
2018-09-08T07:30:33.490Z,2364
2018-09-08T07:31:42.789Z,2380
2018-09-08T07:32:52.398Z,2384
2018-09-08T07:34:02.506Z,2352
2018-09-08T07:35:12.354Z,2360
2018-09-08T07:36:22.196Z,2364
2018-09-08T07:37:32.384Z,2364
2018-09-08T07:38:42.230Z,2348
2018-09-08T07:39:51.796Z,2368
2018-09-08T07:41:01.363Z,2392
2018-09-08T07:42:10.938Z,2416
2018-09-08T07:43:21.104Z,2412
2018-09-08T07:44:30.948Z,2416
2018-09-08T07:45:41.056Z,2440
2018-09-08T07:46:51.166Z,2460
2018-09-08T07:48:00.743Z,2452
2018-09-08T07:49:10.602Z,2448
2018-09-08T07:50:20.178Z,2452
2018-09-08T07:51:29.753Z,2456
2018-09-08T07:52:39.619Z,2444
2018-09-08T07:53:50.073Z,2428
2018-09-08T07:54:59.687Z,2424
2018-09-08T07:56:09.541Z,2420
2018-09-08T07:57:19.170Z,2480
2018-09-08T07:58:28.475Z,2456
2018-09-08T07:59:38.049Z,2472
2018-09-08T08:00:47.621Z,2492
2018-09-08T08:01:56.657Z,2512
2018-09-08T08:03:06.839Z,2508
2018-09-08T08:04:16.731Z,2500
2018-09-08T08:05:26.578Z,2508
2018-09-08T08:06:36.183Z,2500
2018-09-08T08:07:46.143Z,2488
2018-09-08T08:08:55.774Z,2476
2018-09-08T08:10:05.614Z,2500
2018-09-08T08:11:15.191Z,2504
2018-09-08T08:12:25.033Z,2508
2018-09-08T08:13:34.872Z,2524
2018-09-08T08:14:44.377Z,2536
2018-09-08T08:15:54.255Z,2504
2018-09-08T08:17:03.834Z,2492
2018-09-08T08:18:13.983Z,2476
2018-09-08T08:19:23.556Z,2476
2018-09-08T08:20:32.881Z,2480
2018-09-08T08:21:42.182Z,2500
2018-09-08T08:22:51.213Z,2476
2018-09-08T08:24:00.249Z,2496
2018-09-08T08:25:09.831Z,2528
2018-09-08T08:26:19.451Z,2504
2018-09-08T08:27:29.289Z,2496
2018-09-08T08:28:39.161Z,2520
2018-09-08T08:29:48.462Z,2548
2018-09-08T08:30:58.045Z,2548
2018-09-08T08:32:07.891Z,2540
2018-09-08T08:33:17.725Z,2496
2018-09-08T08:34:27.569Z,2528
2018-09-08T08:35:36.883Z,2736
2018-09-08T08:36:46.717Z,2880
2018-09-08T08:37:56.333Z,2584
2018-09-08T08:39:06.181Z,2588
2018-09-08T08:40:16.021Z,2560
2018-09-08T08:41:25.856Z,2588
2018-09-08T08:42:35.429Z,2564
2018-09-08T08:43:45.282Z,2560
2018-09-08T08:44:54.861Z,2540
2018-09-08T08:46:04.163Z,2544
2018-09-08T08:47:14.009Z,2564
2018-09-08T08:48:24.126Z,2588
2018-09-08T08:49:33.700Z,2604
2018-09-08T08:50:43.823Z,2600
2018-09-08T08:51:52.853Z,2576
2018-09-08T08:53:02.703Z,2592
2018-09-08T08:54:12.544Z,2604
2018-09-08T08:55:22.673Z,2612
2018-09-08T08:56:32.255Z,2668
2018-09-08T08:57:42.098Z,2768
2018-09-08T08:58:51.418Z,2712
2018-09-08T09:00:01.538Z,2736
2018-09-08T09:01:11.381Z,2696
2018-09-08T09:02:21.496Z,2700
2018-09-08T09:03:31.279Z,2748
2018-09-08T09:04:41.119Z,2836
2018-09-08T09:05:50.966Z,2764
2018-09-08T09:07:01.950Z,2756
2018-09-08T09:08:11.661Z,2760
2018-09-08T09:09:21.719Z,2700
2018-09-08T09:10:31.292Z,2716
2018-09-08T09:11:41.022Z,2712
2018-09-08T09:12:51.157Z,2736
2018-09-08T09:14:01.013Z,2860
2018-09-08T09:15:13.397Z,3312
2018-09-08T09:16:24.254Z,3172
2018-09-08T09:17:33.824Z,3212
2018-09-08T09:18:45.163Z,3116
2018-09-08T09:19:54.909Z,2936
2018-09-08T09:21:03.676Z,3028
2018-09-08T09:22:13.520Z,3340
2018-09-08T09:23:24.240Z,2956
2018-09-08T09:24:35.606Z,2912
2018-09-08T09:25:46.662Z,2972
2018-09-08T09:26:56.791Z,3024
2018-09-08T09:28:06.635Z,3076
2018-09-08T09:29:16.487Z,3112
2018-09-08T09:30:26.344Z,3184
2018-09-08T09:31:35.651Z,3408
2018-09-08T09:32:45.499Z,3364
2018-09-08T09:33:55.633Z,3776
2018-09-08T09:35:05.485Z,4552
2018-09-08T09:36:15.386Z,3340
2018-09-08T09:37:25.437Z,3428
2018-09-08T09:38:35.096Z,3508
2018-09-08T09:39:44.674Z,3580
2018-09-08T09:40:54.525Z,3672
2018-09-08T09:42:04.372Z,3744
2018-09-08T09:43:14.221Z,3836
2018-09-08T09:44:24.384Z,3896
2018-09-08T09:45:33.911Z,3964
2018-09-08T09:46:43.746Z,4116
2018-09-08T09:47:53.377Z,4472
2018-09-08T09:49:03.232Z,5360
2018-09-08T09:50:13.076Z,5404
2018-09-08T09:51:22.385Z,6348
2018-09-08T09:52:32.502Z,6736
2018-09-08T09:53:42.403Z,6728
2018-09-08T09:54:51.718Z,7092
2018-09-08T09:56:01.298Z,6944
2018-09-08T09:57:10.680Z,7252
2018-09-08T09:58:20.823Z,7632
2018-09-08T09:59:30.673Z,8048
2018-09-08T10:00:40.514Z,8580
2018-09-08T10:01:50.297Z,9248
2018-09-08T10:02:59.332Z,9756
2018-09-08T10:04:08.906Z,10532
2018-09-08T10:05:18.207Z,11292
2018-09-08T10:06:28.207Z,11812
2018-09-08T10:07:37.704Z,12132
2018-09-08T10:08:47.817Z,12560
2018-09-08T10:09:57.931Z,12868
2018-09-08T10:11:07.227Z,13100
2018-09-08T10:12:17.027Z,13352
2018-09-08T10:13:26.601Z,13168
2018-09-08T10:14:36.451Z,13048
2018-09-08T10:15:46.326Z,13344
2018-09-08T10:16:55.920Z,13720
2018-09-08T10:18:06.060Z,14176
2018-09-08T10:19:16.176Z,14528
2018-09-08T10:20:25.772Z,14748
2018-09-08T10:21:35.632Z,14776
2018-09-08T10:22:45.488Z,14604
2018-09-08T10:24:12.053Z,14388
2018-09-08T10:25:21.894Z,14196
2018-09-08T10:26:32.012Z,13800
2018-09-08T10:27:41.373Z,13540
2018-09-08T10:28:51.491Z,13740
2018-09-08T10:30:02.497Z,14000
2018-09-08T10:31:12.555Z,14220
2018-09-08T10:32:23.929Z,14252
2018-09-08T10:33:34.078Z,14312
2018-09-08T10:34:44.126Z,14324
2018-09-08T10:35:53.494Z,14224
2018-09-08T10:37:03.372Z,13848
2018-09-08T10:38:13.496Z,13584
2018-09-08T10:39:23.612Z,12964
2018-09-08T10:40:33.588Z,12372
2018-09-08T10:41:43.443Z,11900
2018-09-08T10:42:53.493Z,11132
2018-09-08T10:44:03.086Z,10792
2018-09-08T10:45:12.939Z,10236
2018-09-08T10:46:23.051Z,10776
2018-09-08T10:47:32.353Z,11200
2018-09-08T10:48:42.467Z,11668
2018-09-08T10:49:52.039Z,12316
2018-09-08T10:51:01.538Z,12628
2018-09-08T10:52:11.545Z,12808
2018-09-08T10:53:21.393Z,12076
2018-09-08T10:54:31.251Z,12584
2018-09-08T10:55:41.093Z,12340
2018-09-08T10:56:50.945Z,12236
2018-09-08T10:58:00.801Z,12284
2018-09-08T10:59:09.837Z,12396
2018-09-08T11:00:19.649Z,11856
2018-09-08T11:01:29.974Z,11868
2018-09-08T11:02:41.678Z,11756
2018-09-08T11:03:52.351Z,11212
2018-09-08T11:05:01.927Z,10736
2018-09-08T11:06:10.960Z,11020
2018-09-08T11:07:20.544Z,11068
2018-09-08T11:08:30.670Z,11948
2018-09-08T11:09:40.824Z,12324
2018-09-08T11:10:50.968Z,11336
2018-09-08T11:12:00.818Z,12372
2018-09-08T11:13:10.395Z,12416
2018-09-08T11:14:19.753Z,13188
2018-09-08T11:15:30.061Z,12768
2018-09-08T11:16:39.927Z,13000
2018-09-08T11:17:49.512Z,12272
2018-09-08T11:18:59.801Z,12112
2018-09-08T11:20:09.656Z,12416
2018-09-08T11:21:19.499Z,11016
2018-09-08T11:22:29.353Z,11300
2018-09-08T11:23:39.198Z,11652
2018-09-08T11:24:48.778Z,11400
2018-09-08T11:25:58.630Z,10392
2018-09-08T11:27:08.476Z,10008
2018-09-08T11:28:18.325Z,10732
2018-09-08T11:29:27.895Z,13512
2018-09-08T11:30:37.643Z,14504
2018-09-08T11:31:47.558Z,13256
2018-09-08T11:32:57.671Z,12060
2018-09-08T11:34:07.249Z,14668
2018-09-08T11:35:16.837Z,12120
2018-09-08T11:36:26.699Z,10904
2018-09-08T11:37:36.547Z,10532
2018-09-08T11:38:46.401Z,11936
2018-09-08T11:39:55.977Z,14928
2018-09-08T11:41:05.560Z,17344
2018-09-08T11:42:15.731Z,15636
2018-09-08T11:43:25.856Z,15644
2018-09-08T11:44:35.970Z,14064
2018-09-08T11:45:45.862Z,14660
2018-09-08T11:46:55.709Z,15812
2018-09-08T11:48:05.570Z,12336
2018-09-08T11:49:15.737Z,9532
2018-09-08T11:50:25.311Z,9412
2018-09-08T11:51:35.455Z,9868
2018-09-08T11:52:45.031Z,9596
2018-09-08T11:53:54.639Z,9648
2018-09-08T11:55:04.219Z,10004
2018-09-08T11:56:14.331Z,12056
2018-09-08T11:57:23.910Z,12820
2018-09-08T11:58:33.216Z,12664
2018-09-08T11:59:43.128Z,12288
2018-09-08T12:00:53.037Z,13376
2018-09-08T12:02:02.976Z,21856
2018-09-08T12:03:12.751Z,19552
2018-09-08T12:04:22.688Z,15904
2018-09-08T12:05:32.806Z,12988
2018-09-08T12:06:42.659Z,12232
2018-09-08T12:07:52.775Z,12284
2018-09-08T12:09:02.343Z,12576
2018-09-08T12:10:11.912Z,13552
2018-09-08T12:11:21.491Z,14988
2018-09-08T12:12:31.613Z,12948
2018-09-08T12:13:40.922Z,12300
2018-09-08T12:14:50.505Z,13176
2018-09-08T12:16:00.355Z,8900
2018-09-08T12:17:09.934Z,7580
2018-09-08T12:18:19.782Z,7500
2018-09-08T12:19:29.644Z,7508
2018-09-08T12:20:39.220Z,6572
2018-09-08T12:21:49.070Z,6148
2018-09-08T12:22:58.376Z,6424
2018-09-08T12:24:07.732Z,7616
2018-09-08T12:25:17.311Z,9336
2018-09-08T12:26:27.159Z,11212
2018-09-08T12:27:37.273Z,11312
2018-09-08T12:28:46.849Z,10560
2018-09-08T12:29:55.882Z,10168
2018-09-08T12:31:06.351Z,10524
2018-09-08T12:32:15.663Z,11868
2018-09-08T12:33:25.240Z,17632
2018-09-08T12:34:34.556Z,26144
2018-09-08T12:35:44.640Z,20800
2018-09-08T12:36:53.678Z,13260
2018-09-08T12:38:02.982Z,19040
2018-09-08T12:39:12.013Z,14752
2018-09-08T12:40:21.860Z,12780
2018-09-08T12:41:31.164Z,11892
2018-09-08T12:42:40.737Z,13892
2018-09-08T12:43:50.037Z,14600
2018-09-08T12:44:59.885Z,21568
2018-09-08T12:46:09.739Z,16784
2018-09-08T12:47:19.626Z,15980
2018-09-08T12:48:29.201Z,18720
2018-09-08T12:49:39.051Z,29312
2018-09-08T12:50:49.171Z,13504
2018-09-08T12:51:58.760Z,14108
2018-09-08T12:53:08.605Z,15360
2018-09-08T12:54:18.242Z,15764
2018-09-08T12:55:28.096Z,14956
2018-09-08T12:56:38.232Z,15260
2018-09-08T12:57:47.813Z,16316
2018-09-08T12:58:57.441Z,15328
2018-09-08T13:00:07.029Z,13204
2018-09-08T13:01:16.879Z,11904
2018-09-08T13:02:26.489Z,12488
2018-09-08T13:03:35.519Z,14664
2018-09-08T13:04:45.370Z,18016
2018-09-08T13:05:55.502Z,21088
2018-09-08T13:07:05.630Z,22624
2018-09-08T13:08:15.216Z,22688
2018-09-08T13:09:25.330Z,20960
2018-09-08T13:10:35.443Z,19424
2018-09-08T13:11:45.294Z,18304
2018-09-08T13:12:55.413Z,18464
2018-09-08T13:14:05.306Z,19456
2018-09-08T13:15:15.170Z,19520
2018-09-08T13:16:25.067Z,19328
2018-09-08T13:17:34.652Z,18368
2018-09-08T13:18:44.230Z,16832
2018-09-08T13:19:54.351Z,15740
2018-09-08T13:21:03.925Z,14072
2018-09-08T13:22:12.968Z,14644
2018-09-08T13:23:23.096Z,15592
2018-09-08T13:24:32.403Z,14188
2018-09-08T13:25:42.533Z,14220
2018-09-08T13:26:51.839Z,15496
2018-09-08T13:28:01.474Z,15980
2018-09-08T13:29:11.320Z,13504
2018-09-08T13:30:20.912Z,11692
2018-09-08T13:31:31.059Z,12272
2018-09-08T13:32:40.631Z,14540
2018-09-08T13:33:50.778Z,17888
2018-09-08T13:35:01.017Z,19520
2018-09-08T13:36:10.590Z,20384
2018-09-08T13:37:20.706Z,19264
2018-09-08T13:38:30.279Z,18784
2018-09-08T13:39:40.589Z,18144
2018-09-08T13:40:50.524Z,16244
2018-09-08T13:42:00.103Z,14124
2018-09-08T13:43:09.953Z,17120
2018-09-08T13:44:19.527Z,19040
2018-09-08T13:45:29.639Z,39712
2018-09-08T13:46:39.489Z,21280
2018-09-08T13:47:49.341Z,19648
2018-09-08T13:48:58.650Z,21440
2018-09-08T13:50:08.249Z,62336
2018-09-08T13:51:18.311Z,39264
2018-09-08T13:52:28.426Z,25344
2018-09-08T13:53:38.008Z,13440
2018-09-08T13:54:47.859Z,11756
2018-09-08T13:55:57.438Z,14892
2018-09-08T13:57:07.382Z,14732
2018-09-08T13:58:16.970Z,14500
2018-09-08T13:59:27.088Z,13984
2018-09-08T14:00:36.938Z,19424
2018-09-08T14:01:47.061Z,36768
2018-09-08T14:02:56.912Z,18176
2018-09-08T14:04:06.582Z,25216
2018-09-08T14:05:16.568Z,22112
2018-09-08T14:06:26.412Z,21920
2018-09-08T14:07:36.255Z,32640
2018-09-08T14:08:46.106Z,42080
2018-09-08T14:09:55.960Z,43968
2018-09-08T14:11:06.088Z,57984
2018-09-08T14:12:15.727Z,67264
2018-09-08T14:13:25.313Z,51040
2018-09-08T14:14:34.623Z,34560
2018-09-08T14:15:43.933Z,40480
2018-09-08T14:16:53.519Z,28192
2018-09-08T14:18:03.380Z,17300
2018-09-08T14:19:13.228Z,32032
2018-09-08T14:20:22.862Z,18400
2018-09-08T14:21:32.706Z,15280
2018-09-08T14:22:41.746Z,35744
2018-09-08T14:23:51.867Z,32832
2018-09-08T14:25:01.185Z,19872
2018-09-08T14:26:11.037Z,72320
2018-09-08T14:27:20.885Z,21472
2018-09-08T14:28:30.544Z,21536
2018-09-08T14:29:40.714Z,68160
2018-09-08T14:30:50.600Z,68448
2018-09-08T14:32:00.718Z,71968
2018-09-08T14:33:10.839Z,79584
2018-09-08T14:34:20.691Z,83104
2018-09-08T14:35:30.819Z,16896
2018-09-08T14:36:40.845Z,76544
2018-09-08T14:37:50.919Z,11212
2018-09-08T14:39:00.767Z,14968
2018-09-08T14:40:10.893Z,76608
2018-09-08T14:41:21.011Z,75680
2018-09-08T14:42:30.866Z,74112
2018-09-08T14:43:40.714Z,65472
2018-09-08T14:44:50.578Z,68800
2018-09-08T14:46:00.736Z,71136
2018-09-08T14:47:10.331Z,70400
2018-09-08T14:48:19.955Z,68800
2018-09-08T14:49:29.285Z,70656
2018-09-08T14:50:39.410Z,51680
2018-09-08T14:51:49.278Z,24128
2018-09-08T14:52:59.406Z,16640
2018-09-08T14:54:09.266Z,14664
2018-09-08T14:55:19.122Z,13944
2018-09-08T14:56:28.710Z,13296
2018-09-08T14:57:38.875Z,13204
2018-09-08T14:58:49.003Z,13692
2018-09-08T14:59:58.332Z,15008
2018-09-08T15:01:07.945Z,15228
2018-09-08T15:02:17.794Z,15736
2018-09-08T15:03:27.114Z,16736
2018-09-08T15:04:37.477Z,17120
2018-09-08T15:05:47.752Z,16832
2018-09-08T15:06:57.606Z,18880
2018-09-08T15:08:07.725Z,18688
2018-09-08T15:09:17.577Z,17408
2018-09-08T15:10:27.725Z,38176
2018-09-08T15:11:37.298Z,19264
2018-09-08T15:12:46.610Z,17376
2018-09-08T15:13:56.458Z,40576
2018-09-08T15:15:06.050Z,45920
2018-09-08T15:16:16.183Z,58816
2018-09-08T15:17:25.762Z,47040
2018-09-08T15:18:35.662Z,40704
2018-09-08T15:19:45.245Z,50496
2018-09-08T15:20:54.823Z,62208
2018-09-08T15:22:04.685Z,65280
2018-09-08T15:23:13.995Z,60800
2018-09-08T15:24:23.968Z,66368
2018-09-08T15:25:34.217Z,55200
2018-09-08T15:26:44.075Z,35040
2018-09-08T15:27:53.929Z,41408
2018-09-08T15:29:03.511Z,51520
2018-09-08T15:30:13.372Z,55808
2018-09-08T15:31:22.683Z,60896
2018-09-08T15:32:32.802Z,14860
2018-09-08T15:33:42.654Z,14060
2018-09-08T15:34:52.792Z,62560
2018-09-08T15:36:02.911Z,65952
2018-09-08T15:37:12.765Z,64544
2018-09-08T15:38:22.622Z,59424
2018-09-08T15:39:32.474Z,51360
2018-09-08T15:40:41.793Z,52192
2018-09-08T15:41:51.385Z,23488
2018-09-08T15:43:01.244Z,39136
2018-09-08T15:44:10.827Z,47968
2018-09-08T15:45:20.207Z,32384
2018-09-08T15:46:29.591Z,37216
2018-09-08T15:47:39.180Z,15264